createdAt,value
2016-12-08T00:00:40.451Z,1.31
2016-12-08T00:01:40.438Z,1.31
2016-12-08T00:02:40.425Z,1.34
2016-12-08T00:03:40.405Z,1.29
2016-12-08T00:04:40.397Z,1.39
2016-12-08T00:05:40.389Z,1.46
2016-12-08T00:06:40.368Z,1.36
2016-12-08T00:07:40.341Z,1.36
2016-12-08T00:08:40.339Z,1.39
2016-12-08T00:09:40.306Z,1.32
2016-12-08T00:10:40.301Z,1.21
2016-12-08T00:11:40.296Z,1.2
2016-12-08T00:12:40.292Z,1.13
2016-12-08T00:13:40.263Z,1.24
2016-12-08T00:14:40.255Z,1.08
2016-12-08T00:15:40.217Z,0.93
2016-12-08T00:16:40.234Z,0.78
2016-12-08T00:17:40.214Z,0.78
2016-12-08T00:18:40.183Z,0.84
2016-12-08T00:19:40.159Z,0.98
2016-12-08T00:20:40.146Z,1
2016-12-08T00:21:40.145Z,1.04
2016-12-08T00:22:40.111Z,1.07
2016-12-08T00:23:40.115Z,1
2016-12-08T00:24:40.094Z,1.16
2016-12-08T00:25:40.080Z,0.98
2016-12-08T00:26:40.078Z,1.13
2016-12-08T00:27:40.063Z,1.11
2016-12-08T00:28:40.020Z,1.11
2016-12-08T00:29:40.034Z,1.21
2016-12-08T00:30:39.990Z,1.24
2016-12-08T00:31:39.994Z,1.24
2016-12-08T00:32:39.959Z,1.21
2016-12-08T00:33:39.967Z,1.17
2016-12-08T00:34:39.922Z,1.32
2016-12-08T00:35:39.932Z,1.31
2016-12-08T00:36:39.929Z,1.24
2016-12-08T00:37:39.903Z,1.13
2016-12-08T00:38:39.898Z,1.16
2016-12-08T00:39:39.882Z,1.04
2016-12-08T00:40:39.839Z,0.95
2016-12-08T00:41:39.823Z,0.92
2016-12-08T00:42:39.850Z,0.92
2016-12-08T00:43:39.817Z,1
2016-12-08T00:44:39.792Z,1.17
2016-12-08T00:45:39.769Z,1.2
2016-12-08T00:46:39.760Z,1.24
2016-12-08T00:47:39.760Z,1.08
2016-12-08T00:48:39.723Z,1.04
2016-12-08T00:49:39.719Z,1
2016-12-08T00:50:39.695Z,1.02
2016-12-08T00:51:39.683Z,0.99
2016-12-08T00:52:39.664Z,1.07
2016-12-08T00:53:39.646Z,1.07
2016-12-08T00:54:39.646Z,1.02
2016-12-08T00:55:39.632Z,0.88
2016-12-08T00:56:39.612Z,0.92
2016-12-08T00:57:39.578Z,0.92
2016-12-08T00:58:39.574Z,0.99
2016-12-08T00:59:39.575Z,0.88
2016-12-08T01:00:39.545Z,0.89
2016-12-08T01:01:39.518Z,0.98
2016-12-08T01:02:39.516Z,0.9
2016-12-08T01:03:39.496Z,0.92
2016-12-08T01:04:39.481Z,0.84
2016-12-08T01:05:39.463Z,0.71
2016-12-08T01:06:39.433Z,0.77
2016-12-08T01:07:39.429Z,0.68
2016-12-08T01:08:39.407Z,0.71
2016-12-08T01:09:39.395Z,0.64
2016-12-08T01:10:39.376Z,0.78
2016-12-08T01:11:39.361Z,0.75
2016-12-08T01:12:39.365Z,0.75
2016-12-08T01:13:39.327Z,0.75
2016-12-08T01:14:39.338Z,0.74
2016-12-08T01:15:39.309Z,0.81
2016-12-08T01:16:39.308Z,0.75
2016-12-08T01:17:39.267Z,0.82
2016-12-08T01:18:39.275Z,0.82
2016-12-08T01:19:39.266Z,1.02
2016-12-08T01:20:39.242Z,1.02
2016-12-08T01:21:39.220Z,1.13
2016-12-08T01:22:39.222Z,1.06
2016-12-08T01:23:39.214Z,1.07
2016-12-08T01:24:39.192Z,1.04
2016-12-08T01:25:39.147Z,0.98
2016-12-08T01:26:39.151Z,1.14
2016-12-08T01:27:39.114Z,1.04
2016-12-08T01:28:39.106Z,1.07
2016-12-08T01:29:39.094Z,1.2
2016-12-08T01:30:39.105Z,1.13
2016-12-08T01:31:39.070Z,1.16
2016-12-08T01:32:39.050Z,1.29
2016-12-08T01:33:39.024Z,1.2
2016-12-08T01:34:39.031Z,1.21
2016-12-08T01:35:39.027Z,1.16
2016-12-08T01:36:39.011Z,1.21
2016-12-08T01:37:38.982Z,1
2016-12-08T01:38:38.951Z,1.06
2016-12-08T01:39:38.934Z,1.04
2016-12-08T01:40:38.929Z,0.93
2016-12-08T01:41:38.913Z,0.82
2016-12-08T01:42:38.898Z,0.8
2016-12-08T01:43:38.868Z,0.8
2016-12-08T01:44:38.869Z,0.93
2016-12-08T01:45:38.863Z,0.92
2016-12-08T01:46:38.848Z,0.89
2016-12-08T01:47:38.821Z,1.04
2016-12-08T01:48:38.793Z,1.07
2016-12-08T01:49:38.795Z,1.04
2016-12-08T01:50:38.781Z,1.1
2016-12-08T01:51:38.772Z,1.18
2016-12-08T01:52:38.729Z,1.07
2016-12-08T01:53:38.739Z,1.17
2016-12-08T01:54:38.738Z,1.17
2016-12-08T01:55:38.696Z,1.18
2016-12-08T01:56:38.686Z,1.24
2016-12-08T01:57:38.657Z,1.21
2016-12-08T01:58:38.639Z,1.13
2016-12-08T01:59:38.657Z,1.21
2016-12-08T02:00:38.620Z,1.13
2016-12-08T02:01:38.617Z,1.14
2016-12-08T02:02:38.587Z,1.08
2016-12-08T02:03:38.567Z,1.08
2016-12-08T02:04:38.558Z,0.96
2016-12-08T02:05:38.549Z,1.06
2016-12-08T02:06:38.528Z,1.06
2016-12-08T02:07:38.510Z,1.07
2016-12-08T02:08:38.501Z,1
2016-12-08T02:09:38.500Z,0.96
2016-12-08T02:10:38.457Z,0.88
2016-12-08T02:11:38.467Z,0.84
2016-12-08T02:12:38.442Z,0.81
2016-12-08T02:13:38.414Z,0.78
2016-12-08T02:14:38.388Z,0.81
2016-12-08T02:15:38.397Z,0.86
2016-12-08T02:16:38.390Z,0.88
2016-12-08T02:17:38.357Z,0.88
2016-12-08T02:18:38.355Z,0.96
2016-12-08T02:19:38.312Z,1.06
2016-12-08T02:20:38.299Z,1.08
2016-12-08T02:21:38.302Z,1.06
2016-12-08T02:22:38.268Z,1.16
2016-12-08T02:23:38.256Z,1.1
2016-12-08T02:24:38.243Z,1.24
2016-12-08T02:25:38.243Z,1.26
2016-12-08T02:26:38.222Z,1.21
2016-12-08T02:27:38.209Z,1.14
2016-12-08T02:28:38.214Z,1.13
2016-12-08T02:29:38.167Z,1.1
2016-12-08T02:30:38.152Z,1.14
2016-12-08T02:31:38.165Z,1.26
2016-12-08T02:32:38.120Z,1.28
2016-12-08T02:33:38.114Z,1.2
2016-12-08T02:34:38.102Z,1.25
2016-12-08T02:35:38.119Z,1.21
2016-12-08T02:36:38.070Z,1.29
2016-12-08T02:37:38.074Z,1.26
2016-12-08T02:38:38.053Z,1.24
2016-12-08T02:39:38.027Z,1.25
2016-12-08T02:40:38.002Z,1.11
2016-12-08T02:41:38.037Z,1.17
2016-12-08T02:42:37.979Z,1.24
2016-12-08T02:43:37.988Z,1.29
2016-12-08T02:44:37.957Z,1.31
2016-12-08T02:45:37.945Z,1.43
2016-12-08T02:46:37.927Z,1.57
2016-12-08T02:47:37.891Z,1.72
2016-12-08T02:48:37.912Z,1.74
2016-12-08T02:49:37.883Z,1.82
2016-12-08T02:50:37.871Z,1.81
2016-12-08T02:51:37.833Z,1.92
2016-12-08T02:52:37.840Z,1.89
2016-12-08T02:53:37.805Z,1.98
2016-12-08T02:54:37.801Z,2.01
2016-12-08T02:55:37.796Z,1.98
2016-12-08T02:56:37.774Z,2.07
2016-12-08T02:57:37.776Z,2.08
2016-12-08T02:58:37.774Z,2.08
2016-12-08T02:59:37.729Z,2.15
2016-12-08T03:00:37.726Z,2.15
2016-12-08T03:01:37.728Z,2.14
2016-12-08T03:02:37.670Z,2.14
2016-12-08T03:03:37.670Z,2.11
2016-12-08T03:04:37.655Z,2.07
2016-12-08T03:05:37.642Z,2.14
2016-12-08T03:06:37.628Z,2.09
2016-12-08T03:07:37.607Z,1.93
2016-12-08T03:08:37.616Z,2.15
2016-12-08T03:09:37.594Z,2.11
2016-12-08T03:10:37.576Z,2.02
2016-12-08T03:11:37.567Z,1.98
2016-12-08T03:12:37.548Z,1.98
2016-12-08T03:13:37.549Z,2.02
2016-12-08T03:14:37.513Z,2.01
2016-12-08T03:15:37.495Z,1.93
2016-12-08T03:16:37.469Z,1.9
2016-12-08T03:17:37.474Z,1.92
2016-12-08T03:18:37.661Z,1.89
2016-12-08T03:19:37.663Z,1.9
2016-12-08T03:20:37.436Z,1.95
2016-12-08T03:21:37.445Z,2
2016-12-08T03:22:37.391Z,2.09
2016-12-08T03:23:37.366Z,2.08
2016-12-08T03:24:37.378Z,2.14
2016-12-08T03:25:37.349Z,2.09
2016-12-08T03:26:37.347Z,2.18
2016-12-08T03:27:37.316Z,2.14
2016-12-08T03:28:37.328Z,2.14
2016-12-08T03:29:37.294Z,2.18
2016-12-08T03:30:37.263Z,2.12
2016-12-08T03:31:37.263Z,2.01
2016-12-08T03:32:37.248Z,2
2016-12-08T03:33:37.240Z,1.92
2016-12-08T03:34:37.221Z,2.02
2016-12-08T03:35:37.214Z,2.05
2016-12-08T03:36:37.201Z,2.14
2016-12-08T03:37:37.158Z,2.19
2016-12-08T03:38:37.173Z,2.25
2016-12-08T03:39:37.168Z,2.3
2016-12-08T03:40:37.129Z,2.19
2016-12-08T03:41:37.129Z,2.26
2016-12-08T03:42:37.098Z,2.12
2016-12-08T03:43:37.105Z,2.26
2016-12-08T03:44:37.088Z,2.09
2016-12-08T03:45:37.080Z,2.01
2016-12-08T03:46:37.250Z,1.98
2016-12-08T03:47:37.046Z,1.83
2016-12-08T03:48:37.242Z,1.77
2016-12-08T03:49:37.229Z,1.63
2016-12-08T03:50:37.000Z,1.63
2016-12-08T03:51:36.988Z,1.54
2016-12-08T03:52:36.972Z,1.63
2016-12-08T03:53:36.958Z,1.74
2016-12-08T03:54:36.943Z,1.85
2016-12-08T03:55:36.927Z,1.82
2016-12-08T03:56:36.962Z,1.89
2016-12-08T03:57:36.943Z,1.72
2016-12-08T03:58:36.929Z,1.74
2016-12-08T03:59:36.913Z,1.82
2016-12-08T04:00:36.898Z,1.88
2016-12-08T04:01:36.882Z,1.92
2016-12-08T04:02:36.868Z,2.01
2016-12-08T04:03:36.857Z,2.01
2016-12-08T04:04:36.840Z,2.19
2016-12-08T04:05:36.825Z,2.11
2016-12-08T04:06:36.812Z,2.15
2016-12-08T04:07:36.794Z,2.14
2016-12-08T04:08:36.781Z,2.18
2016-12-08T04:09:36.768Z,2.12
2016-12-08T04:10:36.752Z,2.09
2016-12-08T04:11:36.735Z,1.95
2016-12-08T04:12:36.719Z,1.98
2016-12-08T04:13:36.706Z,1.98
2016-12-08T04:14:36.692Z,1.88
2016-12-08T04:15:36.676Z,1.85
2016-12-08T04:16:36.904Z,1.86
2016-12-08T04:17:36.649Z,1.72
2016-12-08T04:18:36.834Z,1.79
2016-12-08T04:19:36.620Z,1.81
2016-12-08T04:20:36.608Z,1.86
2016-12-08T04:21:36.586Z,1.92
2016-12-08T04:22:36.574Z,2.01
2016-12-08T04:23:36.559Z,2.01
2016-12-08T04:24:36.545Z,2.14
2016-12-08T04:25:36.528Z,2.07
2016-12-08T04:26:36.513Z,2.08
2016-12-08T04:27:36.498Z,2
2016-12-08T04:28:36.483Z,1.89
2016-12-08T04:29:36.469Z,1.93
2016-12-08T04:30:36.458Z,1.85
2016-12-08T04:31:36.441Z,1.86
2016-12-08T04:32:36.427Z,1.68
2016-12-08T04:33:36.413Z,1.6
2016-12-08T04:34:36.397Z,1.54
2016-12-08T04:35:36.697Z,1.54
2016-12-08T04:36:36.366Z,1.54
2016-12-08T04:37:36.357Z,1.65
2016-12-08T04:38:36.338Z,1.79
2016-12-08T04:39:36.323Z,1.63
2016-12-08T04:40:36.306Z,1.65
2016-12-08T04:41:36.292Z,1.71
2016-12-08T04:42:36.278Z,1.77
2016-12-08T04:43:36.263Z,1.75
2016-12-08T04:44:36.249Z,1.83
2016-12-08T04:45:36.234Z,1.79
2016-12-08T04:46:36.217Z,1.86
2016-12-08T04:47:36.204Z,1.68
2016-12-08T04:48:36.377Z,1.61
2016-12-08T04:49:36.395Z,1.71
2016-12-08T04:50:36.158Z,1.74
2016-12-08T04:51:36.143Z,1.79
2016-12-08T04:52:36.130Z,1.79
2016-12-08T04:53:36.115Z,1.88
2016-12-08T04:54:36.099Z,1.9
2016-12-08T04:55:36.084Z,2.07
2016-12-08T04:56:36.069Z,2.09
2016-12-08T04:57:36.054Z,2.18
2016-12-08T04:58:36.038Z,2.11
2016-12-08T04:59:36.026Z,2.23
2016-12-08T05:00:36.011Z,2.38
2016-12-08T05:01:35.996Z,2.43
2016-12-08T05:02:35.982Z,2.47
2016-12-08T05:03:35.966Z,2.36
2016-12-08T05:04:35.949Z,2.41
2016-12-08T05:05:35.935Z,2.4
2016-12-08T05:06:35.919Z,2.36
2016-12-08T05:07:35.909Z,2.36
2016-12-08T05:08:35.889Z,2.41
2016-12-08T05:09:35.877Z,2.38
2016-12-08T05:10:35.863Z,2.41
2016-12-08T05:11:35.844Z,2.45
2016-12-08T05:12:35.857Z,2.4
2016-12-08T05:13:35.817Z,2.43
2016-12-08T05:14:35.802Z,2.33
2016-12-08T05:15:35.786Z,2.32
2016-12-08T05:16:36.099Z,2.25
2016-12-08T05:17:35.961Z,2.26
2016-12-08T05:18:35.928Z,2.3
2016-12-08T05:19:35.921Z,2.37
2016-12-08T05:20:35.710Z,2.29
2016-12-08T05:21:35.696Z,2.38
2016-12-08T05:22:35.681Z,2.44
2016-12-08T05:23:35.594Z,2.47
2016-12-08T05:24:35.596Z,2.48
2016-12-08T05:25:35.557Z,2.5
2016-12-08T05:26:35.558Z,2.51
2016-12-08T05:27:35.541Z,2.53
2016-12-08T05:28:35.537Z,2.51
2016-12-08T05:29:35.504Z,2.51
2016-12-08T05:30:35.498Z,2.63
2016-12-08T05:31:35.474Z,2.66
2016-12-08T05:32:35.477Z,2.68
2016-12-08T05:33:35.460Z,2.65
2016-12-08T05:34:35.459Z,2.74
2016-12-08T05:35:35.449Z,2.8
2016-12-08T05:36:35.423Z,2.79
2016-12-08T05:37:35.395Z,2.8
2016-12-08T05:38:35.396Z,2.77
2016-12-08T05:39:35.367Z,2.71
2016-12-08T05:40:35.343Z,2.74
2016-12-08T05:41:35.660Z,2.62
2016-12-08T05:42:35.308Z,2.59
2016-12-08T05:43:35.290Z,2.56
2016-12-08T05:44:35.303Z,2.53
2016-12-08T05:45:35.285Z,2.53
2016-12-08T05:46:35.267Z,2.48
2016-12-08T05:47:35.251Z,2.51
2016-12-08T05:48:35.248Z,2.5
2016-12-08T05:49:35.209Z,2.48
2016-12-08T05:50:35.227Z,2.47
2016-12-08T05:51:35.197Z,2.41
2016-12-08T05:52:35.179Z,2.38
2016-12-08T05:53:35.161Z,2.37
2016-12-08T05:54:35.142Z,2.38
2016-12-08T05:55:35.134Z,2.44
2016-12-08T05:56:35.116Z,2.45
2016-12-08T05:57:35.401Z,2.55
2016-12-08T05:58:35.095Z,2.68
2016-12-08T05:59:35.067Z,2.69
2016-12-08T06:00:35.078Z,2.65
2016-12-08T06:01:35.060Z,2.66
2016-12-08T06:02:35.046Z,2.76
2016-12-08T06:03:35.035Z,2.73
2016-12-08T06:04:35.021Z,2.84
2016-12-08T06:05:34.988Z,2.77
2016-12-08T06:06:34.959Z,2.83
2016-12-08T06:07:34.977Z,2.79
2016-12-08T06:08:34.944Z,2.83
2016-12-08T06:09:34.929Z,2.66
2016-12-08T06:10:34.900Z,2.71
2016-12-08T06:11:34.922Z,2.79
2016-12-08T06:12:34.901Z,2.8
2016-12-08T06:13:34.881Z,2.81
2016-12-08T06:14:34.844Z,2.81
2016-12-08T06:15:34.864Z,2.81
2016-12-08T06:16:34.834Z,2.83
2016-12-08T06:17:34.821Z,2.84
2016-12-08T06:18:34.800Z,2.77
2016-12-08T06:19:34.800Z,2.76
2016-12-08T06:20:34.787Z,2.71
2016-12-08T06:21:34.755Z,2.69
2016-12-08T06:22:34.735Z,2.58
2016-12-08T06:23:34.715Z,2.55
2016-12-08T06:24:34.697Z,2.53
2016-12-08T06:25:34.688Z,2.5
2016-12-08T06:26:34.697Z,2.45
2016-12-08T06:27:34.678Z,2.53
2016-12-08T06:28:34.647Z,2.53
2016-12-08T06:29:34.647Z,2.47
2016-12-08T06:30:34.936Z,2.48
2016-12-08T06:31:34.618Z,2.43
2016-12-08T06:32:34.609Z,2.29
2016-12-08T06:33:34.586Z,2.37
2016-12-08T06:34:34.575Z,2.45
2016-12-08T06:35:34.573Z,2.33
2016-12-08T06:36:34.564Z,2.32
2016-12-08T06:37:34.529Z,2.3
2016-12-08T06:38:34.519Z,2.33
2016-12-08T06:39:34.488Z,2.27
2016-12-08T06:40:34.492Z,2.36
2016-12-08T06:41:34.472Z,2.5
2016-12-08T06:42:34.454Z,2.51
2016-12-08T06:43:34.424Z,2.51
2016-12-08T06:44:34.438Z,2.71
2016-12-08T06:45:34.423Z,2.79
2016-12-08T06:46:34.393Z,2.77
2016-12-08T06:47:34.382Z,2.77
2016-12-08T06:48:34.357Z,2.63
2016-12-08T06:49:34.329Z,2.55
2016-12-08T06:50:34.317Z,2.48
2016-12-08T06:51:34.318Z,2.37
2016-12-08T06:52:34.318Z,2.44
2016-12-08T06:53:34.293Z,2.36
2016-12-08T06:54:34.282Z,2.41
2016-12-08T06:55:34.253Z,2.65
2016-12-08T06:56:34.246Z,2.76
2016-12-08T06:57:34.213Z,2.83
2016-12-08T06:58:34.230Z,2.81
2016-12-08T06:59:34.213Z,2.79
2016-12-08T07:00:34.182Z,2.83
2016-12-08T07:01:34.162Z,2.79
2016-12-08T07:02:34.482Z,2.77
2016-12-08T07:03:34.141Z,2.69
2016-12-08T07:04:34.143Z,2.69
2016-12-08T07:05:34.122Z,2.76
2016-12-08T07:06:34.099Z,2.83
2016-12-08T07:07:34.091Z,2.83
2016-12-08T07:08:34.062Z,2.8
2016-12-08T07:09:34.063Z,2.84
2016-12-08T07:10:34.039Z,2.8
2016-12-08T07:11:34.007Z,2.83
2016-12-08T07:12:33.996Z,2.9
2016-12-08T07:13:33.996Z,2.97
2016-12-08T07:14:33.980Z,3.01
2016-12-08T07:15:33.976Z,2.95
2016-12-08T07:16:33.954Z,3.07
2016-12-08T07:17:33.956Z,3.25
2016-12-08T07:18:33.916Z,3.25
2016-12-08T07:19:33.925Z,3.53
2016-12-08T07:20:33.886Z,3.56
2016-12-08T07:21:33.879Z,3.67
2016-12-08T07:22:33.870Z,3.75
2016-12-08T07:23:33.856Z,3.86
2016-12-08T07:24:33.841Z,3.88
2016-12-08T07:25:33.814Z,3.92
2016-12-08T07:26:33.810Z,4.1
2016-12-08T07:27:33.802Z,4.06
2016-12-08T07:28:33.794Z,4.02
2016-12-08T07:29:33.752Z,4.06
2016-12-08T07:30:33.767Z,4.18
2016-12-08T07:31:33.752Z,4.26
2016-12-08T07:32:33.748Z,4.47
2016-12-08T07:33:33.725Z,4.75
2016-12-08T07:34:33.722Z,4.83
2016-12-08T07:35:33.671Z,4.8
2016-12-08T07:36:33.695Z,4.87
2016-12-08T07:37:33.644Z,5.02
2016-12-08T07:38:33.637Z,5.3
2016-12-08T07:39:33.632Z,5.38
2016-12-08T07:40:33.650Z,5.56
2016-12-08T07:41:33.609Z,5.74
2016-12-08T07:42:33.603Z,5.63
2016-12-08T07:43:33.583Z,5.65
2016-12-08T07:44:33.566Z,5.6
2016-12-08T07:45:33.573Z,5.48
2016-12-08T07:46:33.590Z,5.63
2016-12-08T07:47:33.539Z,5.62
2016-12-08T07:48:33.516Z,5.65
2016-12-08T07:49:33.515Z,5.75
2016-12-08T07:50:33.514Z,5.75
2016-12-08T07:51:33.489Z,5.73
2016-12-08T07:52:33.476Z,5.74
2016-12-08T07:53:33.453Z,5.7
2016-12-08T07:54:33.467Z,5.8
2016-12-08T07:55:33.441Z,5.83
2016-12-08T07:56:33.409Z,5.96
2016-12-08T07:57:33.407Z,6.01
2016-12-08T07:58:33.381Z,5.92
2016-12-08T07:59:33.375Z,5.85
2016-12-08T08:00:33.396Z,5.78
2016-12-08T08:01:33.369Z,5.84
2016-12-08T08:02:33.364Z,5.8
2016-12-08T08:03:33.341Z,5.93
2016-12-08T08:04:33.324Z,5.87
2016-12-08T08:05:33.331Z,6.02
2016-12-08T08:06:33.319Z,6.08
2016-12-08T08:07:33.294Z,6.05
2016-12-08T08:08:33.272Z,6.06
2016-12-08T08:09:33.263Z,6.06
2016-12-08T08:10:33.244Z,6.1
2016-12-08T08:11:33.251Z,5.99
2016-12-08T08:12:33.235Z,5.88
2016-12-08T08:13:33.218Z,5.8
2016-12-08T08:14:33.189Z,5.85
2016-12-08T08:15:33.193Z,5.83
2016-12-08T08:16:33.183Z,5.87
2016-12-08T08:17:33.165Z,5.88
2016-12-08T08:18:33.143Z,5.98
2016-12-08T08:19:33.147Z,5.98
2016-12-08T08:20:33.130Z,6.03
2016-12-08T08:21:33.125Z,6.02
2016-12-08T08:22:33.127Z,6.02
2016-12-08T08:23:33.077Z,6.03
2016-12-08T08:24:33.076Z,6.21
2016-12-08T08:25:33.071Z,6.17
2016-12-08T08:26:33.101Z,6.25
2016-12-08T08:27:33.049Z,6.24
2016-12-08T08:28:33.041Z,6.36
2016-12-08T08:29:33.019Z,6.35
2016-12-08T08:30:33.027Z,6.33
2016-12-08T08:31:33.016Z,6.57
2016-12-08T08:32:33.008Z,6.55
2016-12-08T08:33:32.979Z,6.75
2016-12-08T08:34:32.968Z,6.72
2016-12-08T08:35:32.951Z,6.71
2016-12-08T08:36:32.941Z,6.83
2016-12-08T08:37:32.947Z,6.76
2016-12-08T08:38:32.916Z,6.69
2016-12-08T08:39:32.912Z,6.81
2016-12-08T08:40:32.925Z,6.72
2016-12-08T08:41:32.871Z,6.51
2016-12-08T08:42:32.887Z,6.58
2016-12-08T08:43:32.862Z,6.55
2016-12-08T08:44:32.869Z,6.72
2016-12-08T08:45:32.830Z,6.73
2016-12-08T08:46:32.817Z,6.63
2016-12-08T08:47:32.791Z,6.64
2016-12-08T08:48:32.812Z,6.68
2016-12-08T08:49:32.779Z,6.82
2016-12-08T08:50:32.791Z,6.87
2016-12-08T08:51:32.767Z,6.86
2016-12-08T08:52:32.756Z,6.86
2016-12-08T08:53:32.736Z,7.21
2016-12-08T08:54:32.733Z,7.27
2016-12-08T08:55:32.707Z,7.69
2016-12-08T08:56:32.725Z,8.12
2016-12-08T08:57:32.717Z,8.28
2016-12-08T08:58:32.679Z,8.49
2016-12-08T08:59:32.656Z,8.47
2016-12-08T09:00:32.650Z,8.52
2016-12-08T09:01:32.634Z,8.52
2016-12-08T09:02:32.645Z,8.58
2016-12-08T09:03:32.638Z,8.64
2016-12-08T09:04:32.619Z,8.65
2016-12-08T09:05:32.611Z,8.65
2016-12-08T09:06:38.846Z,8.67
2016-12-08T09:07:32.601Z,8.52
2016-12-08T09:08:32.573Z,8.55
2016-12-08T09:09:32.573Z,8.67
2016-12-08T09:10:32.573Z,8.55
2016-12-08T09:11:32.568Z,8.47
2016-12-08T09:12:32.537Z,8.57
2016-12-08T09:13:32.510Z,8.71
2016-12-08T09:14:32.520Z,8.68
2016-12-08T09:15:32.530Z,8.42
2016-12-08T09:16:32.487Z,8.22
2016-12-08T09:17:32.490Z,7.94
2016-12-08T09:18:32.472Z,7.66
2016-12-08T09:19:32.447Z,7.82
2016-12-08T09:20:32.452Z,7.82
2016-12-08T09:21:32.441Z,8.14
2016-12-08T09:22:32.431Z,8.13
2016-12-08T09:23:32.427Z,8.12
2016-12-08T09:24:32.433Z,8.14
2016-12-08T09:25:32.404Z,8.2
2016-12-08T09:26:32.398Z,8.14
2016-12-08T09:27:32.401Z,8.03
2016-12-08T09:28:32.377Z,8.14
2016-12-08T09:29:32.347Z,8.1
2016-12-08T09:30:32.349Z,8.14
2016-12-08T09:31:32.649Z,8.09
2016-12-08T09:32:32.329Z,8.12
2016-12-08T09:33:32.319Z,8.14
2016-12-08T09:34:32.316Z,8.06
2016-12-08T09:35:32.285Z,8.03
2016-12-08T09:36:32.296Z,8.39
2016-12-08T09:37:32.291Z,8.55
2016-12-08T09:38:32.259Z,8.4
2016-12-08T09:39:32.264Z,8.52
2016-12-08T09:40:32.268Z,8.6
2016-12-08T09:41:32.227Z,8.61
2016-12-08T09:42:32.233Z,8.5
2016-12-08T09:43:32.217Z,8.45
2016-12-08T09:44:32.213Z,8.27
2016-12-08T09:45:32.195Z,8.21
2016-12-08T09:46:32.207Z,8.18
2016-12-08T09:47:32.182Z,7.86
2016-12-08T09:48:32.185Z,8.04
2016-12-08T09:49:32.164Z,7.62
2016-12-08T09:50:32.134Z,7.41
2016-12-08T09:51:32.141Z,7.3
2016-12-08T09:52:32.140Z,7.36
2016-12-08T09:53:32.133Z,7.95
2016-12-08T09:54:32.101Z,8.45
2016-12-08T09:55:32.091Z,8.45
2016-12-08T09:56:32.073Z,8.4
2016-12-08T09:57:32.093Z,8.49
2016-12-08T09:58:32.059Z,8.03
2016-12-08T09:59:32.038Z,7.7
2016-12-08T10:00:32.046Z,7.48
2016-12-08T10:01:32.047Z,7.23
2016-12-08T10:02:32.014Z,7.18
2016-12-08T10:03:32.003Z,7.05
2016-12-08T10:04:31.986Z,6.87
2016-12-08T10:05:31.988Z,6.81
2016-12-08T10:06:31.994Z,6.81
2016-12-08T10:07:31.952Z,6.86
2016-12-08T10:08:31.954Z,6.72
2016-12-08T10:09:31.928Z,6.57
2016-12-08T10:10:31.953Z,6.39
2016-12-08T10:11:31.902Z,6.19
2016-12-08T10:12:31.926Z,5.99
2016-12-08T10:13:31.879Z,5.92
2016-12-08T10:14:31.886Z,5.87
2016-12-08T10:15:31.871Z,5.83
2016-12-08T10:16:31.872Z,5.81
2016-12-08T10:17:31.838Z,5.83
2016-12-08T10:18:31.839Z,5.98
2016-12-08T10:19:31.823Z,6.06
2016-12-08T10:20:31.810Z,6.08
2016-12-08T10:21:31.788Z,5.98
2016-12-08T10:22:31.792Z,5.87
2016-12-08T10:23:31.778Z,5.85
2016-12-08T10:24:31.776Z,5.84
2016-12-08T10:25:31.756Z,5.87
2016-12-08T10:26:31.732Z,5.93
2016-12-08T10:27:31.734Z,5.75
2016-12-08T10:28:31.712Z,5.63
2016-12-08T10:29:31.707Z,5.56
2016-12-08T10:30:31.678Z,5.58
2016-12-08T10:31:31.688Z,5.4
2016-12-08T10:32:31.647Z,5.27
2016-12-08T10:33:31.657Z,5.15
2016-12-08T10:34:31.636Z,5.14
2016-12-08T10:35:31.623Z,5.29
2016-12-08T10:36:31.626Z,5.48
2016-12-08T10:37:31.597Z,5.6
2016-12-08T10:38:31.588Z,5.65
2016-12-08T10:39:31.580Z,5.56
2016-12-08T10:40:31.574Z,5.67
2016-12-08T10:41:31.554Z,5.7
2016-12-08T10:42:31.548Z,5.73
2016-12-08T10:43:31.545Z,5.81
2016-12-08T10:44:31.532Z,5.9
2016-12-08T10:45:31.495Z,5.78
2016-12-08T10:46:31.502Z,5.98
2016-12-08T10:47:31.471Z,6.05
2016-12-08T10:48:31.472Z,6.21
2016-12-08T10:49:31.451Z,6.53
2016-12-08T10:50:31.430Z,6.48
2016-12-08T10:51:31.427Z,6.54
2016-12-08T10:52:31.416Z,6.53
2016-12-08T10:53:31.403Z,6.38
2016-12-08T10:54:31.378Z,6.58
2016-12-08T10:55:31.377Z,6.68
2016-12-08T10:56:31.348Z,6.86
2016-12-08T10:57:31.351Z,6.79
2016-12-08T10:58:31.334Z,6.71
2016-12-08T10:59:31.307Z,6.75
2016-12-08T11:00:31.294Z,6.69
2016-12-08T11:01:31.301Z,6.71
2016-12-08T11:02:31.274Z,6.96
2016-12-08T11:03:31.274Z,6.87
2016-12-08T11:04:31.283Z,6.99
2016-12-08T11:05:31.234Z,6.83
2016-12-08T11:06:31.229Z,6.96
2016-12-08T11:07:31.231Z,6.86
2016-12-08T11:08:31.227Z,6.9
2016-12-08T11:09:31.203Z,7.05
2016-12-08T11:10:31.190Z,7.21
2016-12-08T11:11:31.167Z,7.23
2016-12-08T11:12:31.186Z,7.14
2016-12-08T11:13:31.157Z,7.14
2016-12-08T11:14:31.159Z,7.15
2016-12-08T11:15:31.134Z,7.12
2016-12-08T11:16:31.121Z,7.12
2016-12-08T11:17:31.119Z,7.07
2016-12-08T11:18:31.104Z,7.15
2016-12-08T11:19:31.098Z,7.11
2016-12-08T11:20:31.080Z,6.97
2016-12-08T11:21:31.066Z,7.12
2016-12-08T11:22:31.032Z,7.01
2016-12-08T11:23:31.035Z,6.99
2016-12-08T11:24:31.023Z,7
2016-12-08T11:25:31.030Z,7.08
2016-12-08T11:26:30.998Z,7.09
2016-12-08T11:27:30.989Z,7.11
2016-12-08T11:28:30.976Z,6.93
2016-12-08T11:29:30.961Z,6.82
2016-12-08T11:30:30.941Z,6.96
2016-12-08T11:31:30.935Z,7.05
2016-12-08T11:32:31.256Z,6.97
2016-12-08T11:33:30.921Z,6.81
2016-12-08T11:34:31.229Z,6.97
2016-12-08T11:35:30.881Z,6.97
2016-12-08T11:36:30.878Z,6.87
2016-12-08T11:37:31.167Z,6.94
2016-12-08T11:38:30.859Z,7.11
2016-12-08T11:39:30.849Z,6.97
2016-12-08T11:40:30.846Z,7.08
2016-12-08T11:41:30.840Z,7.01
2016-12-08T11:42:30.798Z,7.18
2016-12-08T11:43:30.797Z,7.27
2016-12-08T11:44:30.790Z,7.41
2016-12-08T11:45:30.785Z,7.39
2016-12-08T11:46:30.746Z,7.14
2016-12-08T11:47:30.753Z,7.33
2016-12-08T11:48:30.729Z,7.44
2016-12-08T11:49:30.709Z,6.99
2016-12-08T11:50:30.714Z,6.82
2016-12-08T11:51:30.714Z,6.9
2016-12-08T11:52:30.681Z,6.76
2016-12-08T11:53:30.673Z,6.36
2016-12-08T11:54:30.669Z,6.35
2016-12-08T11:55:30.656Z,6.48
2016-12-08T11:56:30.657Z,6.48
2016-12-08T11:57:30.623Z,6.28
2016-12-08T11:58:30.613Z,6.36
2016-12-08T11:59:30.604Z,6.39
2016-12-08T12:00:30.617Z,6.3
2016-12-08T12:01:30.580Z,6.38
2016-12-08T12:02:30.558Z,6.25
2016-12-08T12:03:30.545Z,6.25
2016-12-08T12:04:30.835Z,6.24
2016-12-08T12:05:30.580Z,6.27
2016-12-08T12:06:30.526Z,6.24
2016-12-08T12:07:30.518Z,6.11
2016-12-08T12:08:30.513Z,6.21
2016-12-08T12:09:30.491Z,6.1
2016-12-08T12:10:30.460Z,6.01
2016-12-08T12:11:30.456Z,6.2
2016-12-08T12:12:30.441Z,6.28
2016-12-08T12:13:30.435Z,6.27
2016-12-08T12:14:30.411Z,6.48
2016-12-08T12:15:30.403Z,6.28
2016-12-08T12:16:30.394Z,6.43
2016-12-08T12:17:30.366Z,6.28
2016-12-08T12:18:30.372Z,6.35
2016-12-08T12:19:30.340Z,6.25
2016-12-08T12:20:30.358Z,6.25
2016-12-08T12:21:30.329Z,6.2
2016-12-08T12:22:30.330Z,6.16
2016-12-08T12:23:30.292Z,6.36
2016-12-08T12:24:30.289Z,6.2
2016-12-08T12:25:30.292Z,6.01
2016-12-08T12:26:30.265Z,6.17
2016-12-08T12:27:30.275Z,6.05
2016-12-08T12:28:30.249Z,6.17
2016-12-08T12:29:30.216Z,6.32
2016-12-08T12:30:30.204Z,6.21
2016-12-08T12:31:30.218Z,6.16
2016-12-08T12:32:30.206Z,6.19
2016-12-08T12:33:30.176Z,6.25
2016-12-08T12:34:30.182Z,6.3
2016-12-08T12:35:30.157Z,6.19
2016-12-08T12:36:30.145Z,6.19
2016-12-08T12:37:30.130Z,6.11
2016-12-08T12:38:30.130Z,5.99
2016-12-08T12:39:30.116Z,5.98
2016-12-08T12:40:30.081Z,5.9
2016-12-08T12:41:30.065Z,6.1
2016-12-08T12:42:30.082Z,5.93
2016-12-08T12:43:30.071Z,5.74
2016-12-08T12:44:30.022Z,5.83
2016-12-08T12:45:30.028Z,5.81
2016-12-08T12:46:30.031Z,6.01
2016-12-08T12:47:30.015Z,5.78
2016-12-08T12:48:29.985Z,5.81
2016-12-08T12:49:29.971Z,5.99
2016-12-08T12:50:29.961Z,5.93
2016-12-08T12:51:29.932Z,5.92
2016-12-08T12:52:29.942Z,5.81
2016-12-08T12:53:29.922Z,5.84
2016-12-08T12:54:29.913Z,5.78
2016-12-08T12:55:29.897Z,5.81
2016-12-08T12:56:29.867Z,5.75
2016-12-08T12:57:29.879Z,5.78
2016-12-08T12:58:29.863Z,5.75
2016-12-08T12:59:29.826Z,5.63
2016-12-08T13:00:29.830Z,5.56
2016-12-08T13:01:29.829Z,5.77
2016-12-08T13:02:29.804Z,5.65
2016-12-08T13:03:29.810Z,5.69
2016-12-08T13:04:29.797Z,5.74
2016-12-08T13:05:29.763Z,5.62
2016-12-08T13:06:29.750Z,5.62
2016-12-08T13:07:29.758Z,5.65
2016-12-08T13:08:29.732Z,5.44
2016-12-08T13:09:29.698Z,5.52
2016-12-08T13:10:29.700Z,5.44
2016-12-08T13:11:29.682Z,5.49
2016-12-08T13:12:29.681Z,5.56
2016-12-08T13:13:29.676Z,5.51
2016-12-08T13:14:29.652Z,5.38
2016-12-08T13:15:29.633Z,5.41
2016-12-08T13:16:29.633Z,5.41
2016-12-08T13:17:29.613Z,5.44
2016-12-08T13:18:29.615Z,5.37
2016-12-08T13:19:29.585Z,5.38
2016-12-08T13:20:29.579Z,5.62
2016-12-08T13:21:29.545Z,5.49